Terminal Aerodrome Forecast
Issued by NWS Cleveland, OH

Home | Current Version | Previous Version | Text Only | Print | Product List | Glossary On
Versions: 1 2 3 4 5 6 7 8 9 10 11 12 13 14 15 16 17 18
000
FTUS41 KCLE 221733
TAFTOL
TAF
KTOL 221733Z 2218/2318 19013KT 6SM -SHRA OVC050
     FM222100 18012G20KT P6SM VCSH BKN025
     FM230400 20007KT P6SM BKN040
     FM231200 23010G18KT 4SM -SHRA OVC015=

USA.gov is the U.S. government's official web portal to all federal, state and local government web resources and services.